Time;durP1;ratioP1;P1;durP2;ratioP2;P2;SDS_P1;SDS_P2;PMS_P1;PMS_P2;Temp;Humidity;BMP_temperature;BMP_pressure;BME280_temperature;BME280_humidity;BME280_pressure;Samples;Min_cycle;Max_cycle;Signal;HPM_P1;HPM_P2
2021/10/19 00:00:55;;;;;;;46.80;24.40;;;;;;;8.78;62.37;101469.48;126252;1099;104225;-79
2021/10/19 00:03:23;;;;;;;45.40;23.87;;;;;;;8.78;62.26;101472.09;126270;1099;104155;-79
2021/10/19 00:05:51;;;;;;;46.87;24.13;;;;;;;8.78;62.63;101461.63;126308;1099;104229;-79
2021/10/19 00:08:19;;;;;;;45.13;24.33;;;;;;;8.78;62.27;101464.23;126306;1099;104185;-80
2021/10/19 00:10:47;;;;;;;46.85;24.15;;;;;;;8.77;62.80;101468.59;126241;1099;104280;-79
2021/10/19 00:13:15;;;;;;;42.53;24.13;;;;;;;8.77;62.38;101472.89;126276;1099;104264;-79
2021/10/19 00:15:42;;;;;;;39.77;23.10;;;;;;;8.77;62.74;101478.13;126287;1099;104155;-78
2021/10/19 00:18:10;;;;;;;43.80;22.63;;;;;;;8.74;62.38;101472.71;126289;1099;104156;-80
2021/10/19 00:20:38;;;;;;;41.23;22.73;;;;;;;8.75;62.33;101474.53;126275;1099;104159;-79
2021/10/19 00:23:06;;;;;;;39.77;23.27;;;;;;;8.73;62.32;101479.67;126233;1099;104171;-80
2021/10/19 00:25:34;;;;;;;40.07;22.47;;;;;;;8.73;62.90;101477.05;126342;1099;104257;-79
2021/10/19 00:28:04;;;;;;;40.50;21.17;;;;;;;8.73;63.09;101473.55;126308;1097;104443;-79
2021/10/19 00:30:32;;;;;;;43.97;22.70;;;;;;;8.73;62.41;101481.40;126373;1098;104153;-78
2021/10/19 00:33:00;;;;;;;43.20;22.20;;;;;;;8.74;62.43;101475.33;126251;1099;104156;-78
2021/10/19 00:35:28;;;;;;;40.23;21.57;;;;;;;8.76;63.22;101481.58;126343;1099;104165;-79
2021/10/19 00:37:56;;;;;;;41.33;22.27;;;;;;;8.77;63.22;101480.74;126320;1099;104171;-79
2021/10/19 00:40:24;;;;;;;44.63;22.40;;;;;;;8.77;62.58;101475.51;126253;1099;104149;-78
2021/10/19 00:42:52;;;;;;;39.10;20.33;;;;;;;8.76;63.32;101477.23;126304;1099;104194;-78
2021/10/19 00:45:21;;;;;;;42.50;21.27;;;;;;;8.77;63.58;101480.74;126319;1098;105020;-79
2021/10/19 00:47:50;;;;;;;44.30;21.30;;;;;;;8.76;62.84;101482.47;126327;1099;104182;-80
2021/10/19 00:50:19;;;;;;;42.70;21.90;;;;;;;8.76;63.63;101486.81;126232;1099;104601;-79
2021/10/19 00:52:49;;;;;;;41.00;21.40;;;;;;;8.75;63.53;101482.38;126155;1099;104149;-78
2021/10/19 00:55:18;;;;;;;40.33;20.77;;;;;;;8.76;63.06;101476.34;126347;1099;104255;-80
2021/10/19 00:57:47;;;;;;;42.70;21.50;;;;;;;8.76;63.57;101472.00;126313;1099;104222;-79
2021/10/19 01:00:19;;;;;;;43.97;22.27;;;;;;;8.77;63.57;101473.81;126298;1099;104291;-79
2021/10/19 01:02:53;;;;;;;39.37;20.47;;;;;;;8.79;63.71;101469.56;126244;1099;104182;-79
2021/10/19 01:05:23;;;;;;;41.17;21.27;;;;;;;8.79;63.75;101466.06;126241;1099;104264;-79
2021/10/19 01:07:51;;;;;;;40.90;20.40;;;;;;;8.80;63.79;101467.84;126293;1099;104242;-78
2021/10/19 01:10:20;;;;;;;37.73;19.93;;;;;;;8.80;63.37;101467.84;126281;1099;104252;-79
2021/10/19 01:12:49;;;;;;;44.73;21.50;;;;;;;8.81;63.87;101470.55;126329;1098;104268;-80
2021/10/19 01:15:18;;;;;;;37.97;20.70;;;;;;;8.83;63.15;101469.74;126317;1099;104152;-78
2021/10/19 01:17:48;;;;;;;38.10;21.93;;;;;;;8.82;63.89;101471.47;126292;1099;104596;-78
2021/10/19 01:20:22;;;;;;;39.77;20.10;;;;;;;8.82;64.03;101476.70;126305;1098;105168;-79
2021/10/19 01:22:50;;;;;;;40.78;21.15;;;;;;;8.82;64.04;101474.09;126277;1099;104149;-78
2021/10/19 01:25:22;;;;;;;40.00;21.33;;;;;;;8.82;63.75;101471.47;126304;1098;104149;-79
2021/10/19 01:27:52;;;;;;;37.30;19.23;;;;;;;8.83;63.63;101464.51;126281;1099;104242;-79
2021/10/19 01:30:21;;;;;;;38.07;20.00;;;;;;;8.85;63.29;101465.48;126258;1099;104144;-79
2021/10/19 01:32:49;;;;;;;41.10;21.00;;;;;;;8.86;63.66;101473.43;126171;1099;104152;-80
2021/10/19 01:35:17;;;;;;;38.30;20.50;;;;;;;8.86;63.39;101468.20;126236;1099;104207;-79
2021/10/19 01:37:46;;;;;;;40.07;20.47;;;;;;;8.86;63.41;101468.20;126318;1099;104139;-79
2021/10/19 01:40:16;;;;;;;36.23;19.40;;;;;;;8.86;63.43;101469.92;126248;1099;104219;-80
2021/10/19 01:42:44;;;;;;;39.37;21.03;;;;;;;8.87;63.58;101474.36;126233;1099;104392;-80
2021/10/19 01:45:15;;;;;;;39.83;20.40;;;;;;;8.87;63.89;101476.97;126348;1099;104274;-79
2021/10/19 01:47:43;;;;;;;36.47;19.90;;;;;;;8.86;63.78;101475.16;126272;1099;104197;-79
2021/10/19 01:50:12;;;;;;;41.00;20.47;;;;;;;8.85;64.03;101478.58;126281;1099;104156;-79
2021/10/19 01:52:43;;;;;;;39.60;19.57;;;;;;;8.85;63.82;101478.58;126285;1099;105543;-79
2021/10/19 01:55:11;;;;;;;40.00;20.23;;;;;;;8.85;64.41;101473.34;126319;1099;104152;-79
2021/10/19 01:57:41;;;;;;;42.13;19.40;;;;;;;8.86;63.74;101477.77;126288;1098;104210;-79
2021/10/19 02:00:11;;;;;;;40.63;20.47;;;;;;;8.85;64.42;101482.12;126299;1099;104188;-79
2021/10/19 02:02:42;;;;;;;36.77;19.80;;;;;;;8.85;63.89;101482.12;126292;1099;104152;-79
2021/10/19 02:05:13;;;;;;;41.13;20.93;;;;;;;8.86;64.54;101490.86;126301;1099;117974;-79
2021/10/19 02:07:43;;;;;;;33.20;17.57;;;;;;;8.85;64.48;101487.35;126320;1099;102293;-79
2021/10/19 02:10:13;;;;;;;37.90;19.03;;;;;;;8.88;64.25;101486.61;126348;1099;104294;-78
2021/10/19 02:12:42;;;;;;;37.20;18.97;;;;;;;8.89;64.10;101478.84;126271;1099;104272;-78
2021/10/19 02:15:11;;;;;;;38.23;19.20;;;;;;;8.91;64.16;101485.09;126195;1098;104216;-79
2021/10/19 02:17:39;;;;;;;37.37;19.20;;;;;;;8.95;64.23;101494.91;126269;1099;104251;-78
2021/10/19 02:20:09;;;;;;;38.07;18.87;;;;;;;8.97;65.01;101495.89;126299;1099;104162;-78
2021/10/19 02:22:37;;;;;;;36.50;18.67;;;;;;;8.99;64.42;101481.20;126316;1099;104169;-78
2021/10/19 02:25:05;;;;;;;38.47;19.00;;;;;;;9.02;65.15;101495.27;126262;1099;104149;-78
2021/10/19 02:27:33;;;;;;;36.93;18.07;;;;;;;9.04;64.67;101486.70;126279;1099;104351;-78
2021/10/19 02:30:02;;;;;;;35.77;19.27;;;;;;;9.05;64.80;101496.33;126321;1098;104155;-78
2021/10/19 02:32:30;;;;;;;35.93;18.53;;;;;;;9.06;64.60;101492.02;126280;1099;104153;-79
2021/10/19 02:34:58;;;;;;;34.17;18.17;;;;;;;9.06;65.07;101500.77;126274;1099;102405;-79
2021/10/19 02:37:26;;;;;;;36.63;18.13;;;;;;;9.07;64.93;101499.04;126287;1098;104150;-78
2021/10/19 02:39:54;;;;;;;36.73;18.07;;;;;;;9.06;64.68;101507.73;126263;1099;104166;-79
2021/10/19 02:42:22;;;;;;;33.13;17.37;;;;;;;9.06;65.41;101507.73;126328;1099;104146;-78
2021/10/19 02:44:50;;;;;;;34.50;17.50;;;;;;;9.03;64.80;101503.20;126237;1099;104328;-78
2021/10/19 02:47:18;;;;;;;36.33;17.90;;;;;;;9.03;64.72;101504.94;126352;1099;104155;-79
2021/10/19 02:49:46;;;;;;;41.53;17.70;;;;;;;9.00;64.79;101503.92;126290;1099;104149;-80
2021/10/19 02:52:13;;;;;;;38.17;19.33;;;;;;;8.99;64.92;101512.61;126340;1099;104181;-78
2021/10/19 02:54:41;;;;;;;37.70;17.67;;;;;;;8.98;65.47;101504.67;126272;1099;104294;-79
2021/10/19 02:57:11;;;;;;;34.10;17.77;;;;;;;8.97;65.70;101508.98;126274;1099;104277;-78
2021/10/19 02:59:41;;;;;;;33.10;17.53;;;;;;;8.96;65.59;101509.81;126287;1099;104194;-79
2021/10/19 03:02:09;;;;;;;38.30;18.57;;;;;;;8.95;65.37;101507.11;126281;1099;104150;-79
2021/10/19 03:04:37;;;;;;;36.20;18.70;;;;;;;8.94;64.89;101511.45;126230;1099;105502;-79
2021/10/19 03:07:05;;;;;;;35.17;17.67;;;;;;;8.92;65.15;101512.16;126318;1099;104255;-79
2021/10/19 03:09:35;;;;;;;36.13;18.00;;;;;;;8.91;65.12;101515.58;126271;1099;104315;-79
2021/10/19 03:12:03;;;;;;;38.37;18.33;;;;;;;8.90;64.96;101517.30;126320;1099;104195;-78
2021/10/19 03:14:31;;;;;;;37.47;17.07;;;;;;;8.89;65.23;101515.48;126325;1099;104281;-78
2021/10/19 03:17:00;;;;;;;41.00;17.50;;;;;;;8.88;65.48;101518.94;126322;1098;104224;-79
2021/10/19 03:19:28;;;;;;;33.60;17.60;;;;;;;8.87;65.07;101519.74;126270;1099;104346;-79
2021/10/19 03:21:58;;;;;;;31.73;17.67;;;;;;;8.86;66.02;101512.69;126299;1098;104389;-79
2021/10/19 03:24:26;;;;;;;37.33;18.10;;;;;;;8.85;65.98;101515.22;126267;1099;104150;-80
2021/10/19 03:26:54;;;;;;;36.00;17.30;;;;;;;8.83;65.73;101503.77;126323;1096;104207;-79
2021/10/19 03:29:23;;;;;;;38.13;17.60;;;;;;;8.82;65.29;101513.34;126285;1099;104200;-79
2021/10/19 03:31:51;;;;;;;36.07;18.80;;;;;;;8.80;65.92;101520.18;126344;1099;104153;-79
2021/10/19 03:34:19;;;;;;;40.30;18.03;;;;;;;8.77;65.97;101523.54;126194;1099;104791;-79
2021/10/19 03:36:46;;;;;;;35.03;18.30;;;;;;;8.73;65.49;101518.03;126213;1098;104344;-80
2021/10/19 03:39:14;;;;;;;32.07;16.97;;;;;;;8.69;66.02;101519.54;126306;1099;104347;-78
2021/10/19 03:41:43;;;;;;;37.07;17.83;;;;;;;8.63;65.61;101527.02;126337;1099;104156;-80
2021/10/19 03:44:11;;;;;;;36.03;17.73;;;;;;;8.57;65.65;101531.89;126318;1099;104460;-79
2021/10/19 03:46:39;;;;;;;36.40;17.47;;;;;;;8.50;65.99;101546.32;126198;1099;104389;-79
2021/10/19 03:49:07;;;;;;;34.00;17.83;;;;;;;8.45;66.25;101539.91;126329;1099;104171;-78
2021/10/19 03:51:34;;;;;;;36.77;19.50;;;;;;;8.39;66.24;101540.40;126233;1099;104245;-78
2021/10/19 03:54:02;;;;;;;39.20;20.13;;;;;;;8.33;65.83;101536.52;126260;1099;104274;-77
2021/10/19 03:56:30;;;;;;;34.90;19.53;;;;;;;8.28;65.87;101539.73;126199;1098;104181;-78
2021/10/19 03:58:58;;;;;;;36.53;19.10;;;;;;;8.25;66.12;101544.78;126225;1099;104226;-78
2021/10/19 04:01:26;;;;;;;39.03;19.30;;;;;;;8.21;66.38;101549.72;126273;1099;104192;-77
2021/10/19 04:03:53;;;;;;;36.57;20.00;;;;;;;8.17;66.15;101555.59;126222;1099;104216;-78
2021/10/19 04:06:21;;;;;;;43.65;19.55;;;;;;;8.13;66.42;101549.24;126222;1099;104207;-78
2021/10/19 04:08:49;;;;;;;38.13;19.37;;;;;;;8.09;66.57;101542.04;126267;1099;104280;-78
2021/10/19 04:11:17;;;;;;;41.17;20.20;;;;;;;8.05;66.77;101545.26;126226;1099;104287;-77
2021/10/19 04:13:45;;;;;;;45.33;21.30;;;;;;;8.03;66.37;101549.50;126234;1099;104156;-77
2021/10/19 04:16:13;;;;;;;44.03;21.63;;;;;;;8.01;66.82;101551.09;126172;1099;104229;-77
2021/10/19 04:18:41;;;;;;;44.33;22.03;;;;;;;7.99;67.02;101550.10;126258;1099;104185;-77
2021/10/19 04:21:09;;;;;;;42.80;22.17;;;;;;;7.97;67.15;101554.34;126269;1099;104255;-78
2021/10/19 04:23:37;;;;;;;41.17;22.10;;;;;;;7.92;66.44;101559.27;126242;1099;104192;-79
2021/10/19 04:26:05;;;;;;;41.73;22.10;;;;;;;7.89;66.70;101565.20;126268;1099;104566;-80
2021/10/19 04:28:33;;;;;;;43.00;22.57;;;;;;;7.85;66.94;101564.91;126292;1099;104156;-79
2021/10/19 04:31:01;;;;;;;43.87;22.70;;;;;;;7.82;66.62;101578.70;126269;1099;104158;-78
2021/10/19 04:33:28;;;;;;;40.73;22.07;;;;;;;7.79;66.98;101568.05;126303;1099;104693;-79
2021/10/19 04:35:56;;;;;;;46.73;22.57;;;;;;;7.79;67.08;101572.35;126217;1099;104192;-77
2021/10/19 04:38:24;;;;;;;50.47;25.13;;;;;;;7.78;66.93;101579.30;126189;1099;104191;-77
2021/10/19 04:40:52;;;;;;;42.67;22.47;;;;;;;7.78;67.50;101584.52;126325;1099;104146;-78
2021/10/19 04:43:25;;;;;;;43.70;22.43;;;;;;;7.76;66.91;101585.22;126280;1099;104165;-77
2021/10/19 04:45:56;;;;;;;42.43;22.40;;;;;;;7.73;67.04;101585.95;126195;1099;104275;-79
2021/10/19 04:48:27;;;;;;;45.23;22.73;;;;;;;7.70;67.29;101590.97;126259;1099;107055;-79
2021/10/19 04:50:58;;;;;;;48.17;23.83;;;;;;;7.67;67.18;101589.05;126309;1099;104150;-79
2021/10/19 04:53:31;;;;;;;45.00;23.27;;;;;;;7.66;67.45;101594.18;126260;1099;104280;-79
2021/10/19 04:55:59;;;;;;;46.00;23.45;;;;;;;7.65;67.28;101588.06;126382;1099;104220;-79
2021/10/19 04:58:27;;;;;;;45.33;22.50;;;;;;;7.67;67.40;101598.61;126275;1099;118613;-78
2021/10/19 05:00:55;;;;;;;45.93;23.70;;;;;;;7.69;67.68;101595.27;126314;1098;102790;-77
2021/10/19 05:03:23;;;;;;;42.43;22.63;;;;;;;7.74;67.47;101600.80;126298;1098;104147;-77
2021/10/19 05:05:51;;;;;;;42.57;22.67;;;;;;;7.76;67.66;101609.66;126318;1099;104140;-76
2021/10/19 05:08:19;;;;;;;43.87;22.43;;;;;;;7.77;68.08;101611.45;126242;1099;104627;-77
2021/10/19 05:10:48;;;;;;;42.60;22.93;;;;;;;7.80;68.13;101615.98;126242;1099;104249;-77
2021/10/19 05:13:16;;;;;;;44.20;23.43;;;;;;;7.82;68.39;101625.73;126246;1098;104226;-77
2021/10/19 05:15:45;;;;;;;42.53;22.23;;;;;;;7.83;68.68;101630.14;126239;1099;104136;-77
2021/10/19 05:18:14;;;;;;;47.83;24.20;;;;;;;7.84;68.49;101634.57;126099;1099;104146;-77
2021/10/19 05:20:43;;;;;;;40.27;22.23;;;;;;;7.84;68.51;101633.67;126245;1099;104175;-78
2021/10/19 05:23:11;;;;;;;40.30;21.40;;;;;;;7.84;68.87;101633.67;126175;1099;104647;-77
2021/10/19 05:25:40;;;;;;;38.13;20.37;;;;;;;7.83;68.65;101640.59;126224;1099;104338;-78
2021/10/19 05:28:08;;;;;;;43.43;22.53;;;;;;;7.84;68.56;101638.91;126201;1099;105566;-77
2021/10/19 05:30:37;;;;;;;39.90;21.45;;;;;;;7.87;68.85;101650.45;126231;1098;104198;-76
2021/10/19 05:33:05;;;;;;;42.43;21.50;;;;;;;7.87;68.72;101645.22;126191;1099;104147;-78
2021/10/19 05:35:33;;;;;;;43.33;22.53;;;;;;;7.91;68.82;101651.55;126286;1099;104251;-77
2021/10/19 05:38:01;;;;;;;47.07;23.70;;;;;;;7.95;69.16;101655.25;126209;1098;104140;-78
2021/10/19 05:40:29;;;;;;;42.27;23.30;;;;;;;7.98;68.69;101664.22;126232;1099;104171;-78
2021/10/19 05:42:58;;;;;;;45.50;22.90;;;;;;;8.02;69.37;101660.97;126209;1099;104162;-77
2021/10/19 05:45:25;;;;;;;41.63;23.27;;;;;;;8.05;69.26;101670.73;126214;1099;104194;-77
2021/10/19 05:47:55;;;;;;;43.27;23.90;;;;;;;8.09;69.77;101672.75;126097;1099;104802;-77
2021/10/19 05:50:23;;;;;;;43.97;22.90;;;;;;;8.13;69.85;101668.61;126124;1098;104141;-78
2021/10/19 05:52:51;;;;;;;45.23;22.77;;;;;;;8.18;69.72;101673.34;126252;1099;104169;-77
2021/10/19 05:55:19;;;;;;;42.63;22.63;;;;;;;8.24;69.47;101675.42;126088;1099;104206;-81
2021/10/19 05:57:48;;;;;;;50.00;24.00;;;;;;;8.30;69.15;101674.92;126064;1097;104158;-79
2021/10/19 06:00:17;;;;;;;44.70;23.83;;;;;;;8.35;70.00;101674.42;126046;1097;104707;-79
2021/10/19 06:02:45;;;;;;;47.63;24.03;;;;;;;8.40;70.01;101675.61;125914;1099;104302;-80
2021/10/19 06:05:13;;;;;;;48.07;23.83;;;;;;;8.48;70.33;101680.44;125995;1099;104172;-78
2021/10/19 06:07:41;;;;;;;43.80;23.60;;;;;;;8.52;70.36;101688.56;125908;1099;104290;-77
2021/10/19 06:10:09;;;;;;;47.80;23.43;;;;;;;8.56;70.59;101682.73;126020;1099;104233;-77
2021/10/19 06:12:37;;;;;;;43.50;23.40;;;;;;;8.61;69.89;101681.30;126067;1099;105204;-79
2021/10/19 06:15:08;;;;;;;40.87;22.50;;;;;;;8.67;69.62;101674.66;126060;1099;104171;-79
2021/10/19 06:17:38;;;;;;;45.23;22.93;;;;;;;8.74;70.48;101682.06;126113;1099;104158;-78
2021/10/19 06:20:08;;;;;;;40.53;20.57;;;;;;;8.81;70.00;101684.27;126069;1099;110822;-79
2021/10/19 06:22:38;;;;;;;40.63;21.23;;;;;;;8.86;70.59;101684.55;126159;1099;104280;-79
2021/10/19 06:25:09;;;;;;;42.20;22.80;;;;;;;8.91;69.90;101689.27;126191;1099;104204;-78
2021/10/19 06:27:47;;;;;;;43.97;22.40;;;;;;;8.98;70.05;101687.92;126194;1099;104284;-79
2021/10/19 06:30:16;;;;;;;41.67;20.07;;;;;;;9.06;70.63;101689.28;126063;1099;104751;-78
2021/10/19 06:32:46;;;;;;;43.70;22.40;;;;;;;9.14;70.44;101697.60;125992;1099;104146;-78
2021/10/19 06:35:15;;;;;;;40.87;22.00;;;;;;;9.22;70.09;101688.48;126021;1099;104168;-78
2021/10/19 06:37:44;;;;;;;42.03;21.00;;;;;;;9.32;70.14;101685.62;126210;1099;104284;-78
2021/10/19 06:40:13;;;;;;;42.30;22.10;;;;;;;9.43;69.95;101693.22;126041;1099;104160;-77
2021/10/19 06:42:45;;;;;;;41.77;22.60;;;;;;;9.47;70.32;101690.87;126091;1099;104169;-77
2021/10/19 06:45:16;;;;;;;40.03;19.83;;;;;;;9.51;70.00;101690.22;126100;1099;104309;-75
2021/10/19 06:47:47;;;;;;;42.57;22.10;;;;;;;9.61;70.14;101696.91;126120;1099;104143;-74
2021/10/19 06:50:16;;;;;;;40.73;21.87;;;;;;;9.66;70.00;101691.93;126083;1099;104224;-80
2021/10/19 06:52:44;;;;;;;41.10;21.60;;;;;;;9.72;69.67;101702.77;126182;1098;104201;-78
2021/10/19 06:55:15;;;;;;;39.57;21.17;;;;;;;9.80;69.42;101698.91;126158;1098;104146;-77
2021/10/19 06:57:46;;;;;;;40.73;21.40;;;;;;;9.88;69.13;101699.34;126298;1099;104169;-77
2021/10/19 07:00:17;;;;;;;36.53;20.07;;;;;;;9.95;69.02;101700.59;126203;1099;104169;-76
2021/10/19 07:02:45;;;;;;;40.87;21.27;;;;;;;10.03;69.20;101702.82;126159;1099;104277;-76
2021/10/19 07:05:14;;;;;;;38.00;20.07;;;;;;;10.09;68.73;101704.90;126166;1099;104289;-76
2021/10/19 07:07:44;;;;;;;42.43;19.73;;;;;;;10.13;68.64;101711.21;126249;1099;104142;-76
2021/10/19 07:10:16;;;;;;;37.57;20.03;;;;;;;10.23;68.60;101716.17;126144;1099;104159;-79
2021/10/19 07:12:47;;;;;;;38.08;19.00;;;;;;;10.36;68.49;101717.80;126238;1099;104303;-76
2021/10/19 07:15:21;;;;;;;36.40;19.23;;;;;;;10.42;68.61;101711.19;126107;1099;104143;-77
2021/10/19 07:17:50;;;;;;;36.20;19.20;;;;;;;10.47;68.37;101705.27;126005;1097;105633;-77
2021/10/19 07:20:19;;;;;;;37.07;19.60;;;;;;;10.47;68.16;101703.58;125958;1099;104163;-78
2021/10/19 07:22:50;;;;;;;38.47;20.13;;;;;;;10.51;68.64;101707.27;126107;1099;104691;-77
2021/10/19 07:25:20;;;;;;;34.77;18.90;;;;;;;10.54;68.71;101703.08;125254;1099;104207;-78
2021/10/19 07:27:49;;;;;;;36.70;18.27;;;;;;;10.65;68.12;101692.27;125269;1099;104235;-79
2021/10/19 07:30:25;;;;;;;35.07;19.30;;;;;;;10.73;68.00;101690.95;125505;1099;104802;-77
2021/10/19 07:32:58;;;;;;;35.93;18.67;;;;;;;10.81;67.87;101691.37;126007;1099;104290;-77
2021/10/19 07:35:26;;;;;;;35.90;18.47;;;;;;;10.92;68.16;101693.77;125367;1099;104322;-77
2021/10/19 07:37:54;;;;;;;37.67;18.80;;;;;;;11.01;67.78;101693.33;125395;1099;104329;-77
2021/10/19 07:40:24;;;;;;;36.50;18.67;;;;;;;11.09;67.48;101685.86;125144;1099;104273;-78
2021/10/19 07:42:52;;;;;;;35.93;18.03;;;;;;;11.14;67.63;101689.61;125202;1102;104278;-78
2021/10/19 07:45:22;;;;;;;33.23;17.97;;;;;;;11.21;67.51;101694.37;125172;1099;104245;-77
2021/10/19 07:47:52;;;;;;;37.57;18.53;;;;;;;11.26;66.86;101689.36;125151;1102;104316;-78
2021/10/19 07:50:29;;;;;;;37.07;18.67;;;;;;;11.28;67.20;101690.33;125305;1099;104245;-77
2021/10/19 07:52:59;;;;;;;35.57;18.70;;;;;;;11.32;66.61;101695.83;126053;1099;104214;-77
2021/10/19 07:55:32;;;;;;;36.60;18.03;;;;;;;11.38;67.04;101695.25;126143;1099;104476;-78
2021/10/19 07:58:01;;;;;;;34.48;17.48;;;;;;;11.44;66.84;101699.94;126086;1099;104160;-77
2021/10/19 08:00:32;;;;;;;39.00;17.87;;;;;;;11.54;66.93;101699.56;126192;1099;104144;-77
2021/10/19 08:03:09;;;;;;;33.77;16.23;;;;;;;11.62;66.02;101689.44;126295;1099;104201;-79
2021/10/19 08:05:41;;;;;;;29.93;15.87;;;;;;;11.71;65.56;101684.64;126134;1099;104139;-76
2021/10/19 08:08:12;;;;;;;29.67;15.13;;;;;;;11.79;65.33;101691.17;126220;1099;104277;-77
2021/10/19 08:10:43;;;;;;;29.60;14.27;;;;;;;11.88;65.57;101693.38;126068;1099;104246;-78
2021/10/19 08:13:14;;;;;;;30.03;15.07;;;;;;;12.00;64.94;101693.12;126229;1099;102870;-78
2021/10/19 08:15:43;;;;;;;30.30;14.73;;;;;;;12.07;64.54;101691.68;126209;1099;104194;-78
2021/10/19 08:18:16;;;;;;;34.47;16.20;;;;;;;12.10;64.59;101694.46;126172;1099;104137;-77
2021/10/19 08:20:46;;;;;;;29.73;15.63;;;;;;;12.12;64.47;101685.79;126013;1099;104197;-77
2021/10/19 08:23:15;;;;;;;32.83;16.17;;;;;;;12.16;64.61;101687.75;126156;1099;104290;-77
2021/10/19 08:25:46;;;;;;;31.57;15.23;;;;;;;12.23;64.33;101692.50;126154;1099;104217;-79
2021/10/19 08:28:23;;;;;;;29.70;15.17;;;;;;;12.29;64.37;101693.61;126073;1099;104175;-79
2021/10/19 08:30:56;;;;;;;25.93;13.83;;;;;;;12.38;64.13;101696.68;126026;1099;104255;-79
2021/10/19 08:33:27;;;;;;;28.77;13.87;;;;;;;12.50;64.19;101699.89;125972;1099;104328;-80
2021/10/19 08:35:58;;;;;;;31.97;14.57;;;;;;;12.60;63.58;101703.84;126161;1099;104139;-79
2021/10/19 08:38:26;;;;;;;24.83;12.63;;;;;;;12.69;63.26;101699.01;126130;1097;104139;-78
2021/10/19 08:41:01;;;;;;;23.93;11.93;;;;;;;12.75;62.42;101696.66;126055;1099;104245;-76
2021/10/19 08:43:29;;;;;;;;;;;;;;;12.77;58.83;101705.52;126186;1098;104242;-77
2021/10/19 08:46:00;;;;;;;24.93;11.47;;;;;;;12.80;62.24;101696.88;126043;1098;104333;-78
2021/10/19 08:48:31;;;;;;;24.53;11.80;;;;;;;12.80;61.56;101701.25;126043;1099;104507;-77
2021/10/19 08:51:00;;;;;;;25.10;11.60;;;;;;;12.86;61.26;101701.53;126111;1099;104328;-79
2021/10/19 08:53:30;;;;;;;26.70;12.20;;;;;;;12.86;60.65;101694.52;126224;1099;104171;-79
2021/10/19 08:56:03;;;;;;;27.13;12.17;;;;;;;12.88;60.50;101695.48;126212;1099;102299;-78
2021/10/19 08:58:33;;;;;;;25.77;12.63;;;;;;;12.93;60.63;101696.61;126131;1099;104259;-79
2021/10/19 09:01:06;;;;;;;25.63;12.17;;;;;;;13.04;60.60;101689.19;126170;1099;104242;-79
2021/10/19 09:03:35;;;;;;;23.37;11.10;;;;;;;13.13;60.55;101681.70;126088;1099;111606;-80
2021/10/19 09:06:04;;;;;;;23.87;10.97;;;;;;;13.12;58.97;101692.17;126106;1099;104191;-79
2021/10/19 09:08:34;;;;;;;25.33;11.20;;;;;;;13.21;59.72;101689.02;126077;1099;104341;-78
2021/10/19 09:11:14;;;;;;;21.73;10.77;;;;;;;13.32;59.13;101682.47;126153;1099;104191;-80
2021/10/19 09:13:53;;;;;;;22.30;11.03;;;;;;;13.35;57.90;101681.75;126100;1099;104281;-77
2021/10/19 09:16:36;;;;;;;23.17;11.23;;;;;;;13.30;58.01;101690.31;126169;1099;104194;-80
2021/10/19 09:19:05;;;;;;;23.27;11.28;;;;;;;13.41;58.55;101684.65;126198;1097;104162;-78
2021/10/19 09:21:50;;;;;;;24.30;10.83;;;;;;;13.48;58.09;101684.98;126167;1099;104223;-79
2021/10/19 09:24:28;;;;;;;24.70;11.40;;;;;;;13.55;57.62;101682.60;126071;1099;107473;-77
2021/10/19 09:26:59;;;;;;;25.30;11.57;;;;;;;13.53;56.84;101677.27;125365;1099;104136;-79
2021/10/19 09:29:30;;;;;;;22.23;9.57;;;;;;;13.52;57.20;101682.47;126027;1099;104344;-78
2021/10/19 09:32:01;;;;;;;22.23;10.03;;;;;;;13.51;56.78;101684.22;125946;1099;104239;-77
2021/10/19 09:34:33;;;;;;;22.90;10.90;;;;;;;13.53;57.22;101673.73;125928;1099;119183;-79
2021/10/19 09:37:05;;;;;;;20.97;10.07;;;;;;;13.52;56.04;101679.84;125909;1098;104361;-75
2021/10/19 09:39:37;;;;;;;22.00;9.90;;;;;;;13.51;57.09;101678.95;126044;1099;104169;-77
2021/10/19 09:42:08;;;;;;;19.37;8.87;;;;;;;13.49;56.20;101677.95;126040;1099;104258;-77
2021/10/19 09:44:37;;;;;;;22.93;9.37;;;;;;;13.56;56.39;101682.67;126007;1099;104140;-78
2021/10/19 09:47:06;;;;;;;17.27;8.10;;;;;;;13.69;56.17;101677.91;126240;1099;104162;-76
2021/10/19 09:49:34;;;;;;;21.77;7.80;;;;;;;13.81;54.98;101667.87;126213;1098;104142;-76
2021/10/19 09:52:07;;;;;;;20.77;8.60;;;;;;;13.92;55.49;101668.31;126187;1099;104139;-79
2021/10/19 09:54:36;;;;;;;17.83;8.47;;;;;;;13.99;53.37;101673.91;126065;1097;104268;-76
2021/10/19 09:57:09;;;;;;;21.80;7.77;;;;;;;13.99;53.54;101679.18;126128;1099;104245;-76
2021/10/19 09:59:41;;;;;;;18.60;7.97;;;;;;;14.07;53.39;101675.92;126255;1098;104172;-76
2021/10/19 10:02:13;;;;;;;19.37;8.40;;;;;;;14.12;52.44;101680.56;126184;1098;104194;-77
2021/10/19 10:04:42;;;;;;;18.60;8.73;;;;;;;14.20;52.64;101679.12;125872;1099;104204;-78
2021/10/19 10:07:17;;;;;;;17.62;8.65;;;;;;;14.36;53.43;101674.45;126023;1099;104612;-79
2021/10/19 10:09:47;;;;;;;19.07;8.70;;;;;;;14.42;52.16;101673.80;125998;1099;104361;-77
2021/10/19 10:12:26;;;;;;;19.07;8.37;;;;;;;14.42;51.75;101679.08;126012;1099;104242;-77
2021/10/19 10:14:54;;;;;;;20.10;8.53;;;;;;;14.36;51.92;101675.33;125964;1099;104175;-76
2021/10/19 10:17:22;;;;;;;20.47;8.93;;;;;;;14.25;51.61;101673.14;126029;1099;104155;-76
2021/10/19 10:19:52;;;;;;;18.70;8.67;;;;;;;14.22;52.15;101679.19;125937;1099;104165;-78
2021/10/19 10:22:28;;;;;;;17.43;8.10;;;;;;;14.23;52.26;101678.35;126012;1098;104204;-75
2021/10/19 10:25:03;;;;;;;18.10;8.90;;;;;;;14.23;52.04;101677.43;125946;1099;104162;-76
2021/10/19 10:27:32;;;;;;;17.23;8.10;;;;;;;14.20;51.57;101678.23;126100;1096;104274;-76
2021/10/19 10:30:00;;;;;;;19.07;7.93;;;;;;;14.19;51.97;101669.42;126103;1099;104207;-77
2021/10/19 10:32:30;;;;;;;16.27;7.43;;;;;;;14.19;50.90;101677.34;125988;1099;104182;-76
2021/10/19 10:35:09;;;;;;;15.73;7.03;;;;;;;14.18;50.75;101677.28;125919;1099;104337;-77
2021/10/19 10:37:39;;;;;;;14.47;6.83;;;;;;;14.10;50.01;101683.97;125798;1099;104805;-77
2021/10/19 10:40:12;;;;;;;19.40;7.35;;;;;;;14.06;50.34;101682.95;125810;1098;104156;-76
2021/10/19 10:42:42;;;;;;;14.53;6.53;;;;;;;14.00;50.30;101675.68;125998;1099;104839;-76
2021/10/19 10:45:21;;;;;;;16.03;6.70;;;;;;;13.96;49.09;101692.25;126097;1098;104191;-75
2021/10/19 10:47:58;;;;;;;17.10;6.20;;;;;;;13.90;50.41;101693.71;126101;1099;104184;-76
2021/10/19 10:50:27;;;;;;;15.30;6.67;;;;;;;13.80;49.55;101697.72;126219;1099;104187;-78
2021/10/19 10:53:01;;;;;;;17.33;6.50;;;;;;;13.75;49.89;101688.72;126285;1099;104299;-76
2021/10/19 10:55:36;;;;;;;17.33;7.50;;;;;;;13.78;49.96;101678.30;126181;1099;104708;-76
2021/10/19 10:58:06;;;;;;;15.03;6.93;;;;;;;13.82;49.43;101680.20;126285;1099;104146;-77
2021/10/19 11:00:34;;;;;;;16.67;7.00;;;;;;;13.89;49.64;101686.66;126213;1099;104134;-77
2021/10/19 11:03:14;;;;;;;16.20;7.47;;;;;;;13.95;49.60;101685.16;126214;1099;104386;-78
2021/10/19 11:05:54;;;;;;;18.97;7.23;;;;;;;14.02;49.75;101679.30;126230;1099;104743;-76
2021/10/19 11:08:28;;;;;;;17.90;6.97;;;;;;;14.12;49.75;101688.48;126277;1099;104143;-76
2021/10/19 11:11:09;;;;;;;18.00;7.50;;;;;;;14.17;49.16;101680.75;126134;1099;104290;-76